createdAt,value
2017-07-03T00:00:21.923Z,18.60
2017-07-03T00:02:49.429Z,18.60
2017-07-03T00:05:16.967Z,18.60
2017-07-03T00:07:45.238Z,18.50
2017-07-03T00:10:12.743Z,18.50
2017-07-03T00:12:40.259Z,18.50
2017-07-03T00:15:07.773Z,18.50
2017-07-03T00:17:35.295Z,18.50
2017-07-03T00:20:02.802Z,18.50
2017-07-03T00:22:30.323Z,18.50
2017-07-03T00:24:57.826Z,18.50
2017-07-03T00:27:25.331Z,18.50
2017-07-03T00:29:53.631Z,18.50
2017-07-03T00:32:21.125Z,18.40
2017-07-03T00:34:48.650Z,18.40
2017-07-03T00:37:16.158Z,18.40
2017-07-03T00:39:43.673Z,18.40
2017-07-03T00:42:11.186Z,18.40
2017-07-03T00:44:39.490Z,18.40
2017-07-03T00:47:06.998Z,18.40
2017-07-03T00:49:34.498Z,18.40
2017-07-03T00:52:02.787Z,18.40
2017-07-03T00:54:30.299Z,18.40
2017-07-03T00:56:57.814Z,18.40
2017-07-03T00:59:25.322Z,18.30
2017-07-03T01:01:52.841Z,18.30
2017-07-03T01:04:20.342Z,18.30
2017-07-03T01:06:47.846Z,18.30
2017-07-03T01:09:15.369Z,18.30
2017-07-03T01:11:42.873Z,18.30
2017-07-03T01:14:10.390Z,18.30
2017-07-03T01:16:38.660Z,18.20
2017-07-03T01:19:06.202Z,18.20
2017-07-03T01:21:33.699Z,18.20
2017-07-03T01:24:01.206Z,18.20
2017-07-03T01:26:28.724Z,18.20
2017-07-03T01:28:56.222Z,18.20
2017-07-03T01:31:23.735Z,18.20
2017-07-03T01:33:51.997Z,18.20
2017-07-03T01:36:19.527Z,18.20
2017-07-03T01:38:47.027Z,18.20
2017-07-03T01:41:15.305Z,18.20
2017-07-03T01:43:43.591Z,18.20
2017-07-03T01:46:11.094Z,18.20
2017-07-03T01:48:38.615Z,18.20
2017-07-03T01:51:06.115Z,18.20
2017-07-03T01:53:33.658Z,18.20
2017-07-03T01:56:01.170Z,18.20
2017-07-03T01:58:29.433Z,18.20
2017-07-03T02:00:56.954Z,18.10
2017-07-03T02:03:24.462Z,18.10
2017-07-03T02:05:52.749Z,18.10
2017-07-03T02:08:21.019Z,18.10
2017-07-03T02:10:49.310Z,18.10
2017-07-03T02:13:16.810Z,18.10
2017-07-03T02:15:44.310Z,18.10
2017-07-03T02:18:12.599Z,18.10
2017-07-03T02:20:40.860Z,18.10
2017-07-03T02:23:09.145Z,18.10
2017-07-03T02:25:37.414Z,18.10
2017-07-03T02:28:05.718Z,18.10
2017-07-03T02:30:33.234Z,18.10
2017-07-03T02:33:00.739Z,18.00
2017-07-03T02:35:28.266Z,18.00
2017-07-03T02:37:56.536Z,18.00
2017-07-03T02:40:24.058Z,18.00
2017-07-03T02:42:51.576Z,18.00
2017-07-03T02:45:19.877Z,18.00
2017-07-03T02:47:47.389Z,18.00
2017-07-03T02:50:14.895Z,18.00
2017-07-03T02:52:42.418Z,18.00
2017-07-03T02:55:10.687Z,18.00
2017-07-03T02:57:38.207Z,17.90
2017-07-03T03:00:05.717Z,18.00
2017-07-03T03:02:34.005Z,18.00
2017-07-03T03:05:02.271Z,17.90
2017-07-03T03:07:30.538Z,17.90
2017-07-03T03:09:58.068Z,17.90
2017-07-03T03:12:25.562Z,17.90
2017-07-03T03:14:53.845Z,17.90
2017-07-03T03:17:22.111Z,17.90
2017-07-03T03:19:50.419Z,17.90
2017-07-03T03:22:17.934Z,17.90
2017-07-03T03:24:45.426Z,17.90
2017-07-03T03:27:13.710Z,17.90
2017-07-03T03:29:41.222Z,17.80
2017-07-03T03:32:08.750Z,17.90
2017-07-03T03:34:36.246Z,17.90
2017-07-03T03:37:03.783Z,17.90
2017-07-03T03:39:31.288Z,17.90
2017-07-03T03:41:59.564Z,17.90
2017-07-03T03:44:27.851Z,17.90
2017-07-03T03:46:55.346Z,17.80
2017-07-03T03:49:22.860Z,17.90
2017-07-03T03:51:51.134Z,17.90
2017-07-03T03:54:19.443Z,17.80
2017-07-03T03:56:46.952Z,17.80
2017-07-03T03:59:14.464Z,17.80
2017-07-03T04:01:41.983Z,17.80
2017-07-03T04:04:10.255Z,17.80
2017-07-03T04:06:38.538Z,17.80
2017-07-03T04:09:06.816Z,17.80
2017-07-03T04:11:35.114Z,17.80
2017-07-03T04:14:02.622Z,17.80
2017-07-03T04:16:30.119Z,17.80
2017-07-03T04:18:58.402Z,17.80
2017-07-03T04:21:25.910Z,17.80
2017-07-03T04:23:53.435Z,17.80
2017-07-03T04:26:20.930Z,17.80
2017-07-03T04:28:48.467Z,17.80
2017-07-03T04:31:15.979Z,17.80
2017-07-03T04:33:44.249Z,17.80
2017-07-03T04:36:11.767Z,17.80
2017-07-03T04:38:39.270Z,17.80
2017-07-03T04:41:06.803Z,17.80
2017-07-03T04:43:34.327Z,17.90
2017-07-03T04:46:01.866Z,17.90
2017-07-03T04:48:30.139Z,17.90
2017-07-03T04:50:58.414Z,17.90
2017-07-03T04:53:26.709Z,17.90
2017-07-03T04:55:54.214Z,17.90
2017-07-03T04:58:21.732Z,18.00
2017-07-03T05:00:49.249Z,18.00
2017-07-03T05:03:16.773Z,18.00
2017-07-03T05:05:44.275Z,18.00
2017-07-03T05:08:11.782Z,18.10
2017-07-03T05:10:39.302Z,18.10
2017-07-03T05:13:06.808Z,18.10
2017-07-03T05:15:34.318Z,18.10
2017-07-03T05:18:01.826Z,18.20
2017-07-03T05:20:29.391Z,18.20
2017-07-03T05:22:56.885Z,18.30
2017-07-03T05:25:24.378Z,18.30
2017-07-03T05:27:51.895Z,18.30
2017-07-03T05:30:19.397Z,18.30
2017-07-03T05:32:46.914Z,18.30
2017-07-03T05:35:14.424Z,18.40
2017-07-03T05:37:41.955Z,18.40
2017-07-03T05:40:09.467Z,18.40
2017-07-03T05:42:56.815Z,18.50
2017-07-03T05:45:24.311Z,18.50
2017-07-03T05:47:51.807Z,18.50
2017-07-03T05:50:19.339Z,18.50
2017-07-03T05:52:46.850Z,18.60
2017-07-03T05:55:14.366Z,18.60
2017-07-03T05:57:41.876Z,18.60
2017-07-03T06:00:09.392Z,18.70
2017-07-03T06:02:36.895Z,18.70
2017-07-03T06:05:04.427Z,18.70
2017-07-03T06:07:31.922Z,18.70
2017-07-03T06:10:00.191Z,18.80
2017-07-03T06:12:28.474Z,18.80
2017-07-03T06:14:56.751Z,18.90
2017-07-03T06:17:25.044Z,18.90
2017-07-03T06:19:52.571Z,18.80
2017-07-03T06:22:20.111Z,18.90
2017-07-03T06:24:47.614Z,18.90
2017-07-03T06:27:15.130Z,19.00
2017-07-03T06:29:42.661Z,19.00
2017-07-03T06:32:10.165Z,19.00
2017-07-03T06:34:37.696Z,19.00
2017-07-03T06:37:05.194Z,19.10
2017-07-03T06:39:32.716Z,19.10
2017-07-03T06:42:01.030Z,19.10
2017-07-03T06:44:28.526Z,19.10
2017-07-03T06:46:56.046Z,19.20
2017-07-03T06:49:23.548Z,19.20
2017-07-03T06:51:51.063Z,19.30
2017-07-03T06:54:18.568Z,19.30
2017-07-03T06:56:46.108Z,19.30
2017-07-03T06:59:13.620Z,19.40
2017-07-03T07:01:41.126Z,19.40
2017-07-03T07:04:08.651Z,19.50
2017-07-03T07:06:36.158Z,19.50
2017-07-03T07:09:03.690Z,19.60
2017-07-03T07:11:31.970Z,19.70
2017-07-03T07:13:59.519Z,19.70
2017-07-03T07:16:27.066Z,19.80
2017-07-03T07:18:54.569Z,19.90
2017-07-03T07:21:22.091Z,20.00
2017-07-03T07:23:49.615Z,20.00
2017-07-03T07:26:19.440Z,20.10
2017-07-03T07:28:47.866Z,20.20
2017-07-03T07:31:15.478Z,20.20
2017-07-03T07:33:43.759Z,20.40
2017-07-03T07:36:11.261Z,20.30
2017-07-03T07:38:38.790Z,20.40
2017-07-03T07:41:06.308Z,20.40
2017-07-03T07:43:33.815Z,20.40
2017-07-03T07:46:01.331Z,20.50
2017-07-03T07:48:28.840Z,20.50
2017-07-03T07:50:56.367Z,20.50
2017-07-03T07:53:23.873Z,20.60
2017-07-03T07:55:51.402Z,20.60
2017-07-03T07:58:19.673Z,20.70
2017-07-03T08:00:47.951Z,20.70
2017-07-03T08:03:15.472Z,20.60
2017-07-03T08:05:42.978Z,20.70
2017-07-03T08:08:11.271Z,20.80
2017-07-03T08:10:38.776Z,20.80
2017-07-03T08:13:07.051Z,21.00
2017-07-03T08:15:35.341Z,21.10
2017-07-03T08:18:02.882Z,21.10
2017-07-03T08:20:31.182Z,21.20
2017-07-03T08:22:58.682Z,21.20
2017-07-03T08:25:26.199Z,21.30
2017-07-03T08:27:53.718Z,21.30
2017-07-03T08:30:21.222Z,21.30
2017-07-03T08:32:48.749Z,21.40
2017-07-03T08:35:16.259Z,21.60
2017-07-03T08:37:43.778Z,21.70
2017-07-03T08:40:11.298Z,21.70
2017-07-03T08:42:38.802Z,21.90
2017-07-03T08:45:06.331Z,22.00
2017-07-03T08:47:33.831Z,22.10
2017-07-03T08:50:01.418Z,22.20
2017-07-03T08:52:28.942Z,22.30
2017-07-03T08:54:56.448Z,22.40
2017-07-03T08:57:23.974Z,22.50
2017-07-03T08:59:51.479Z,22.70
2017-07-03T09:02:18.979Z,22.80
2017-07-03T09:04:46.502Z,22.90
2017-07-03T09:07:14.775Z,23.10
2017-07-03T09:09:42.299Z,23.10
2017-07-03T09:12:09.822Z,23.20
2017-07-03T09:14:37.324Z,23.40
2017-07-03T09:17:04.847Z,23.50
2017-07-03T09:19:32.352Z,23.70
2017-07-03T09:21:59.892Z,23.80
2017-07-03T09:24:27.407Z,23.80
2017-07-03T09:26:54.918Z,23.90
2017-07-03T09:29:22.438Z,23.90
2017-07-03T09:31:49.946Z,23.90
2017-07-03T09:34:17.470Z,23.90
2017-07-03T09:36:44.978Z,23.90
2017-07-03T09:39:12.563Z,23.90
2017-07-03T09:41:40.122Z,23.90
2017-07-03T09:44:07.623Z,23.90
2017-07-03T09:46:35.198Z,23.80
2017-07-03T09:49:02.712Z,23.80
2017-07-03T09:51:30.986Z,23.70
2017-07-03T09:53:58.528Z,23.70
2017-07-03T09:56:26.036Z,23.70
2017-07-03T09:58:54.323Z,23.70
2017-07-03T10:01:21.831Z,23.70
2017-07-03T10:03:49.375Z,23.70
2017-07-03T10:06:16.891Z,23.70
2017-07-03T10:08:44.458Z,23.70
2017-07-03T10:11:12.008Z,23.70
2017-07-03T10:13:40.980Z,23.80
2017-07-03T10:16:08.530Z,23.80
2017-07-03T10:18:36.032Z,23.80
2017-07-03T10:21:03.542Z,23.90
2017-07-03T10:23:31.094Z,23.90
2017-07-03T10:25:58.607Z,23.90
2017-07-03T10:28:26.214Z,24.00
2017-07-03T10:30:54.490Z,24.00
2017-07-03T10:33:22.069Z,24.00
2017-07-03T10:35:49.611Z,24.00
2017-07-03T10:38:17.122Z,24.10
2017-07-03T10:40:44.661Z,24.20
2017-07-03T10:43:12.175Z,24.30
2017-07-03T10:45:40.462Z,24.50
2017-07-03T10:48:07.987Z,24.40
2017-07-03T10:50:35.494Z,24.60
2017-07-03T10:53:03.034Z,24.60
2017-07-03T10:55:30.543Z,24.80
2017-07-03T10:57:58.057Z,24.90
2017-07-03T11:00:25.583Z,25.00
2017-07-03T11:02:53.082Z,25.00
2017-07-03T11:05:20.602Z,25.10
2017-07-03T11:07:48.109Z,25.30
2017-07-03T11:10:15.616Z,25.30
2017-07-03T11:12:43.132Z,25.40
2017-07-03T11:15:10.630Z,25.50
2017-07-03T11:17:38.168Z,25.50
2017-07-03T11:20:05.666Z,25.50
2017-07-03T11:22:33.162Z,25.50
2017-07-03T11:25:00.682Z,25.40
2017-07-03T11:27:28.175Z,25.40
2017-07-03T11:29:55.699Z,25.40
2017-07-03T11:32:23.200Z,25.30
2017-07-03T11:34:50.716Z,25.30
2017-07-03T11:37:18.239Z,25.30
2017-07-03T11:39:45.771Z,25.20
2017-07-03T11:42:13.303Z,25.20
2017-07-03T11:44:41.583Z,25.20
2017-07-03T11:47:09.855Z,25.20
2017-07-03T11:49:38.151Z,25.20
2017-07-03T11:52:06.419Z,25.20
2017-07-03T11:54:33.955Z,25.10
2017-07-03T11:57:01.467Z,25.20
2017-07-03T11:59:28.973Z,25.10
2017-07-03T12:01:56.498Z,25.10
2017-07-03T12:04:24.016Z,25.10
2017-07-03T12:06:51.554Z,25.10
2017-07-03T12:09:19.058Z,25.10
2017-07-03T12:11:46.562Z,25.10
2017-07-03T12:14:14.079Z,25.10
2017-07-03T12:16:41.588Z,25.10
2017-07-03T12:19:09.117Z,25.20
2017-07-03T12:21:36.619Z,25.20
2017-07-03T12:24:04.894Z,25.40
2017-07-03T12:26:32.412Z,25.30
2017-07-03T12:28:59.915Z,25.50
2017-07-03T12:31:27.451Z,25.50
2017-07-03T12:33:54.955Z,25.60
2017-07-03T12:36:22.478Z,25.60
2017-07-03T12:38:49.991Z,25.60
2017-07-03T12:41:17.502Z,25.60
2017-07-03T12:43:45.797Z,25.60
2017-07-03T12:46:13.304Z,25.60
2017-07-03T12:48:40.807Z,25.60
2017-07-03T12:51:09.090Z,25.70
2017-07-03T12:53:37.359Z,25.70
2017-07-03T12:56:04.878Z,25.70
2017-07-03T12:58:32.378Z,25.70
2017-07-03T13:00:59.887Z,25.70
2017-07-03T13:03:27.402Z,25.60
2017-07-03T13:05:54.918Z,25.50
2017-07-03T13:08:22.448Z,25.50
2017-07-03T13:10:49.949Z,25.50
2017-07-03T13:13:17.454Z,25.60
2017-07-03T13:15:44.971Z,25.60
2017-07-03T13:18:12.479Z,25.60
2017-07-03T13:20:40.013Z,25.70
2017-07-03T13:23:08.283Z,25.80
2017-07-03T13:25:36.555Z,25.90
2017-07-03T13:28:04.843Z,25.90
2017-07-03T13:30:32.343Z,25.90
2017-07-03T13:32:59.867Z,25.90
2017-07-03T13:35:28.130Z,26.00
2017-07-03T13:37:55.643Z,25.90
2017-07-03T13:40:23.171Z,26.00
2017-07-03T13:42:50.690Z,26.00
2017-07-03T13:45:18.226Z,26.10
2017-07-03T13:47:45.736Z,26.10
2017-07-03T13:50:14.008Z,26.00
2017-07-03T13:52:41.522Z,26.00
2017-07-03T13:55:09.028Z,26.00
2017-07-03T13:57:37.339Z,26.10
2017-07-03T14:00:04.839Z,26.10
2017-07-03T14:02:32.339Z,26.10
2017-07-03T14:04:59.884Z,26.10
2017-07-03T14:07:27.387Z,26.20
2017-07-03T14:09:54.915Z,26.30
2017-07-03T14:12:22.418Z,26.40
2017-07-03T14:14:50.074Z,26.40
2017-07-03T14:17:17.594Z,26.60
2017-07-03T14:19:45.096Z,26.70
2017-07-03T14:22:12.630Z,26.80
2017-07-03T14:24:40.143Z,26.90
2017-07-03T14:27:08.413Z,27.00
2017-07-03T14:29:36.703Z,27.10
2017-07-03T14:32:04.214Z,27.10
2017-07-03T14:34:31.762Z,27.20
2017-07-03T14:37:00.275Z,27.30
2017-07-03T14:39:27.794Z,27.30
2017-07-03T14:41:55.357Z,27.30
2017-07-03T14:44:22.860Z,27.30
2017-07-03T14:46:50.389Z,27.30
2017-07-03T14:49:18.629Z,27.30
2017-07-03T14:51:46.173Z,27.40
2017-07-03T14:54:13.698Z,27.40
2017-07-03T14:56:41.199Z,27.10
2017-07-03T14:59:08.721Z,27.40
2017-07-03T15:01:36.250Z,27.50
2017-07-03T15:04:03.785Z,27.50
2017-07-03T15:06:31.291Z,27.50
2017-07-03T15:08:58.803Z,27.40
2017-07-03T15:11:26.327Z,27.40
2017-07-03T15:13:53.863Z,27.40
2017-07-03T15:16:21.390Z,27.40
2017-07-03T15:18:48.890Z,27.40
2017-07-03T15:21:16.406Z,27.40
2017-07-03T15:23:43.937Z,27.40
2017-07-03T15:26:12.219Z,27.40
2017-07-03T15:28:40.510Z,27.40
2017-07-03T15:31:08.044Z,27.30
2017-07-03T15:33:36.310Z,27.30
2017-07-03T15:36:03.819Z,27.30
2017-07-03T15:38:31.328Z,27.30
2017-07-03T15:40:58.860Z,27.30
2017-07-03T15:43:26.361Z,27.30
2017-07-03T15:45:53.886Z,27.20
2017-07-03T15:48:21.387Z,27.10
2017-07-03T15:50:49.664Z,26.90
2017-07-03T15:53:17.378Z,26.90
2017-07-03T15:55:44.938Z,26.90
2017-07-03T15:58:12.476Z,26.80
2017-07-03T16:00:39.975Z,26.90
2017-07-03T16:03:07.469Z,27.00
2017-07-03T16:05:35.759Z,27.30
2017-07-03T16:08:03.294Z,27.30
2017-07-03T16:10:31.846Z,27.70
2017-07-03T16:13:00.191Z,27.90
2017-07-03T16:15:27.735Z,27.90
2017-07-03T16:17:57.125Z,28.10
2017-07-03T16:20:29.079Z,28.50
2017-07-03T16:22:57.475Z,28.60
2017-07-03T16:25:25.006Z,28.60
2017-07-03T16:27:52.516Z,28.80
2017-07-03T16:30:20.316Z,28.90
2017-07-03T16:32:47.828Z,29.10
2017-07-03T16:35:15.451Z,29.20
2017-07-03T16:37:42.959Z,29.40
2017-07-03T16:40:10.476Z,29.50
2017-07-03T16:42:38.762Z,29.50
2017-07-03T16:45:07.038Z,29.40
2017-07-03T16:47:35.339Z,29.30
2017-07-03T16:50:02.848Z,29.30
2017-07-03T16:52:30.350Z,29.30
2017-07-03T16:54:58.023Z,29.30
2017-07-03T16:57:25.537Z,29.40
2017-07-03T16:59:53.079Z,29.50
2017-07-03T17:02:20.590Z,29.70
2017-07-03T17:04:48.110Z,29.70
2017-07-03T17:07:15.674Z,29.90
2017-07-03T17:09:43.219Z,30.00
2017-07-03T17:12:10.764Z,30.10
2017-07-03T17:14:38.292Z,30.20
2017-07-03T17:17:05.810Z,30.20
2017-07-03T17:19:33.342Z,30.20
2017-07-03T17:22:00.855Z,30.10
2017-07-03T17:24:29.146Z,30.00
2017-07-03T17:27:03.761Z,29.90
2017-07-03T17:29:32.155Z,29.80
2017-07-03T17:31:59.681Z,29.70
2017-07-03T17:34:27.198Z,29.50
2017-07-03T17:36:54.726Z,29.40
2017-07-03T17:39:22.257Z,29.20
2017-07-03T17:41:49.774Z,29.00
2017-07-03T17:44:17.794Z,28.80
2017-07-03T17:46:45.374Z,28.70
2017-07-03T17:49:13.863Z,28.50
2017-07-03T17:51:41.491Z,28.40
2017-07-03T17:54:09.057Z,28.30
2017-07-03T17:56:37.333Z,28.00
2017-07-03T17:59:05.631Z,27.90
2017-07-03T18:01:33.168Z,27.90
2017-07-03T18:04:00.725Z,27.70
2017-07-03T18:06:28.244Z,27.60
2017-07-03T18:08:55.764Z,27.50
2017-07-03T18:11:24.053Z,27.30
2017-07-03T18:13:51.570Z,27.30
2017-07-03T18:16:19.111Z,27.20
2017-07-03T18:18:46.634Z,27.00
2017-07-03T18:21:14.149Z,26.90
2017-07-03T18:23:41.682Z,26.80
2017-07-03T18:26:09.210Z,26.80
2017-07-03T18:28:36.727Z,26.70
2017-07-03T18:31:04.257Z,26.60
2017-07-03T18:33:31.772Z,26.60
2017-07-03T18:35:59.310Z,26.50
2017-07-03T18:38:31.937Z,26.40
2017-07-03T18:40:59.443Z,26.30
2017-07-03T18:43:26.971Z,26.20
2017-07-03T18:45:54.495Z,26.10
2017-07-03T18:48:22.015Z,26.00
2017-07-03T18:50:49.540Z,25.90
2017-07-03T18:53:17.105Z,25.80
2017-07-03T18:55:44.640Z,25.70
2017-07-03T18:58:12.147Z,25.70
2017-07-03T19:00:39.647Z,25.50
2017-07-03T19:03:07.171Z,25.50
2017-07-03T19:05:34.674Z,25.30
2017-07-03T19:08:02.206Z,25.20
2017-07-03T19:10:29.738Z,25.10
2017-07-03T19:12:57.243Z,25.00
2017-07-03T19:15:25.554Z,24.80
2017-07-03T19:17:53.086Z,24.80
2017-07-03T19:20:21.370Z,24.60
2017-07-03T19:22:48.870Z,24.60
2017-07-03T19:25:16.374Z,24.50
2017-07-03T19:27:44.651Z,24.30
2017-07-03T19:30:12.165Z,24.30
2017-07-03T19:32:39.682Z,24.20
2017-07-03T19:35:07.238Z,24.10
2017-07-03T19:37:34.740Z,24.00
2017-07-03T19:40:02.267Z,23.90
2017-07-03T19:42:29.783Z,23.80
2017-07-03T19:44:57.313Z,23.80
2017-07-03T19:47:24.820Z,23.70
2017-07-03T19:49:53.279Z,23.50
2017-07-03T19:52:20.797Z,23.50
2017-07-03T19:54:48.594Z,23.50
2017-07-03T19:57:16.442Z,23.40
2017-07-03T19:59:43.955Z,23.30
2017-07-03T20:02:11.465Z,23.20
2017-07-03T20:04:39.024Z,23.20
2017-07-03T20:07:06.534Z,23.10
2017-07-03T20:09:34.067Z,23.00
2017-07-03T20:12:01.570Z,23.00
2017-07-03T20:14:29.078Z,22.90
2017-07-03T20:16:56.602Z,22.80
2017-07-03T20:19:24.108Z,22.80
2017-07-03T20:21:51.638Z,22.70
2017-07-03T20:24:19.140Z,22.60
2017-07-03T20:26:47.427Z,22.50
2017-07-03T20:29:15.719Z,22.40
2017-07-03T20:31:43.650Z,22.40
2017-07-03T20:34:11.190Z,22.30
2017-07-03T20:36:38.708Z,22.30
2017-07-03T20:39:06.211Z,22.30
2017-07-03T20:41:33.763Z,22.20
2017-07-03T20:44:01.277Z,22.10
2017-07-03T20:46:28.850Z,22.00
2017-07-03T20:48:56.351Z,22.00
2017-07-03T20:51:23.862Z,21.90
2017-07-03T20:53:51.388Z,21.90
2017-07-03T20:56:19.187Z,21.80
2017-07-03T20:58:46.758Z,21.80
2017-07-03T21:01:14.267Z,21.70
2017-07-03T21:03:41.769Z,21.70
2017-07-03T21:06:09.281Z,21.60
2017-07-03T21:08:36.791Z,21.60
2017-07-03T21:11:04.315Z,21.50
2017-07-03T21:13:31.810Z,21.50
2017-07-03T21:15:59.314Z,21.40
2017-07-03T21:18:26.830Z,21.40
2017-07-03T21:20:54.355Z,21.30
2017-07-03T21:23:22.658Z,21.20
2017-07-03T21:25:50.902Z,21.20
2017-07-03T21:28:18.402Z,21.20
2017-07-03T21:30:45.922Z,21.10
2017-07-03T21:33:14.188Z,21.00
2017-07-03T21:35:41.710Z,21.00
2017-07-03T21:38:09.215Z,21.00
2017-07-03T21:40:36.717Z,21.00
2017-07-03T21:43:04.240Z,20.90
2017-07-03T21:45:31.755Z,20.90
2017-07-03T21:47:59.275Z,20.80
2017-07-03T21:50:26.775Z,20.80
2017-07-03T21:52:54.290Z,20.70
2017-07-03T21:55:21.824Z,20.70
2017-07-03T21:57:49.340Z,20.70
2017-07-03T22:00:16.870Z,20.60
2017-07-03T22:02:44.391Z,20.60
2017-07-03T22:05:11.935Z,20.50
2017-07-03T22:07:39.456Z,20.50
2017-07-03T22:10:06.965Z,20.50
2017-07-03T22:12:34.492Z,20.50
2017-07-03T22:15:02.042Z,20.40
2017-07-03T22:17:29.551Z,20.40
2017-07-03T22:19:57.130Z,20.40
2017-07-03T22:22:24.654Z,20.30
2017-07-03T22:24:52.180Z,20.30
2017-07-03T22:27:19.690Z,20.30
2017-07-03T22:29:47.194Z,20.30
2017-07-03T22:32:14.709Z,20.30
2017-07-03T22:34:42.215Z,20.30
2017-07-03T22:37:09.736Z,20.20
2017-07-03T22:39:37.255Z,20.30
2017-07-03T22:42:04.762Z,20.20
2017-07-03T22:44:32.289Z,20.30
2017-07-03T22:46:59.830Z,20.30
2017-07-03T22:49:27.348Z,20.20
2017-07-03T22:51:55.620Z,20.30
2017-07-03T22:54:23.131Z,20.30
2017-07-03T22:56:50.646Z,20.30
2017-07-03T22:59:18.142Z,20.30
2017-07-03T23:01:45.665Z,20.20
2017-07-03T23:04:13.164Z,20.20
2017-07-03T23:06:40.679Z,20.30
2017-07-03T23:09:08.207Z,20.20
2017-07-03T23:11:35.714Z,20.20
2017-07-03T23:14:03.238Z,20.20
2017-07-03T23:16:30.737Z,20.20
2017-07-03T23:18:58.244Z,20.20
2017-07-03T23:21:25.764Z,20.10
2017-07-03T23:23:53.264Z,20.10
2017-07-03T23:26:20.790Z,20.10
2017-07-03T23:28:48.299Z,20.10
2017-07-03T23:31:16.570Z,20.10
2017-07-03T23:39:26.158Z,19.90
2017-07-03T23:41:53.657Z,19.90
2017-07-03T23:44:21.158Z,19.90
2017-07-03T23:46:48.682Z,19.80
2017-07-03T23:49:16.186Z,19.80
2017-07-03T23:51:43.818Z,19.80
2017-07-03T23:54:11.324Z,19.80
2017-07-03T23:56:38.831Z,19.70
2017-07-03T23:59:06.351Z,19.70
